createdAt,value
2022-09-14T00:01:24.812Z,0.13
2022-09-14T00:03:53.034Z,0.10
2022-09-14T00:06:19.915Z,0.20
2022-09-14T00:08:50.591Z,0.10
2022-09-14T00:11:17.695Z,0.40
2022-09-14T00:13:45.283Z,0.10
2022-09-14T00:16:19.995Z,0.15
2022-09-14T00:18:53.493Z,0.10
2022-09-14T00:21:20.583Z,0.35
2022-09-14T00:23:47.489Z,0.35
2022-09-14T00:26:17.711Z,0.20
2022-09-14T00:28:46.664Z,0.10
2022-09-14T00:31:13.909Z,0.10
2022-09-14T00:33:44.750Z,0.20
2022-09-14T00:36:13.887Z,0.20
2022-09-14T00:38:41.770Z,0.10
2022-09-14T00:41:12.367Z,0.00
2022-09-14T00:44:02.000Z,0.47
2022-09-14T00:46:48.231Z,0.10
2022-09-14T00:49:20.706Z,0.10
2022-09-14T00:52:03.985Z,0.10
2022-09-14T00:54:31.202Z,0.08
2022-09-14T00:56:59.077Z,0.00
2022-09-14T00:59:27.617Z,0.10
2022-09-14T01:01:54.636Z,0.00
2022-09-14T01:04:22.305Z,0.10
2022-09-14T01:06:52.055Z,0.20
2022-09-14T01:09:51.710Z,0.35
2022-09-14T01:12:40.488Z,0.10
2022-09-14T01:15:18.389Z,0.10
2022-09-14T01:18:08.323Z,0.10
2022-09-14T01:20:47.503Z,0.10
2022-09-14T01:23:32.592Z,0.10
2022-09-14T01:26:17.684Z,0.10
2022-09-14T01:28:56.952Z,0.10
2022-09-14T01:31:54.549Z,0.32
2022-09-14T01:34:24.618Z,0.30
2022-09-14T01:36:55.632Z,0.20
2022-09-14T01:39:24.639Z,0.43
2022-09-14T01:41:52.426Z,0.22
2022-09-14T01:44:23.351Z,0.60
2022-09-14T01:46:53.913Z,0.70
2022-09-14T01:49:23.602Z,0.68
2022-09-14T01:51:58.569Z,0.95
2022-09-14T01:54:39.782Z,0.60
2022-09-14T01:57:17.246Z,0.80
2022-09-14T01:59:45.517Z,0.90
2022-09-14T02:02:19.531Z,0.90
2022-09-14T02:05:05.349Z,1.10
2022-09-14T02:07:36.230Z,0.80
2022-09-14T02:10:04.519Z,0.50
2022-09-14T02:12:31.441Z,0.47
2022-09-14T02:14:58.399Z,0.82
2022-09-14T02:17:26.078Z,0.47
2022-09-14T02:19:57.326Z,0.20
2022-09-14T02:22:26.071Z,0.50
2022-09-14T02:24:53.091Z,0.47
2022-09-14T02:27:20.080Z,0.43
2022-09-14T02:29:47.009Z,0.20
2022-09-14T02:32:31.192Z,0.20
2022-09-14T02:35:01.019Z,0.40
2022-09-14T02:37:57.362Z,0.38
2022-09-14T02:40:37.583Z,0.40
2022-09-14T02:43:14.919Z,0.38
2022-09-14T02:46:03.719Z,0.20
2022-09-14T02:49:00.938Z,0.40
2022-09-14T02:54:16.206Z,0.40
2022-09-14T02:56:44.658Z,0.68
2022-09-14T02:59:11.890Z,0.63
2022-09-14T03:01:38.888Z,1.10
2022-09-14T03:04:05.950Z,0.65
2022-09-14T03:06:32.886Z,0.50
2022-09-14T03:08:59.821Z,0.47
2022-09-14T03:11:26.705Z,0.45
2022-09-14T03:13:53.608Z,0.50
2022-09-14T03:16:20.619Z,0.88
2022-09-14T03:18:47.614Z,0.57
2022-09-14T03:21:15.847Z,0.60
2022-09-14T03:23:47.374Z,0.75
2022-09-14T03:26:16.042Z,0.60
2022-09-14T03:28:43.424Z,0.60
2022-09-14T03:31:11.528Z,0.80
2022-09-14T03:33:38.755Z,0.75
2022-09-14T03:36:17.343Z,1.10
2022-09-14T03:38:45.207Z,0.77
2022-09-14T03:41:12.518Z,0.88
2022-09-14T03:43:39.770Z,0.77
2022-09-14T03:46:14.813Z,0.88
2022-09-14T03:48:42.123Z,0.93
2022-09-14T03:51:10.032Z,1.00
2022-09-14T03:53:37.872Z,1.55
2022-09-14T03:56:16.776Z,1.35
2022-09-14T03:58:44.506Z,1.42
2022-09-14T04:01:14.562Z,1.20
2022-09-14T04:03:41.768Z,0.73
2022-09-14T04:06:09.989Z,1.48
2022-09-14T04:08:38.191Z,1.40
2022-09-14T04:11:12.451Z,0.70
2022-09-14T04:13:39.775Z,0.70
2022-09-14T04:16:06.896Z,1.70
2022-09-14T04:18:33.938Z,1.52
2022-09-14T04:21:08.561Z,0.63
2022-09-14T04:23:46.151Z,1.67
2022-09-14T04:26:19.183Z,1.27
2022-09-14T04:28:49.761Z,1.40
2022-09-14T04:31:16.765Z,1.02
2022-09-14T04:33:44.023Z,1.70
2022-09-14T04:36:13.022Z,1.48
2022-09-14T04:38:40.479Z,1.83
2022-09-14T04:41:11.724Z,1.60
2022-09-14T04:44:06.701Z,1.45
2022-09-14T04:46:36.938Z,1.90
2022-09-14T04:49:04.082Z,1.80
2022-09-14T04:51:31.466Z,1.50
2022-09-14T04:53:59.486Z,1.33
2022-09-14T04:56:26.979Z,1.00
2022-09-14T04:58:55.926Z,1.08
2022-09-14T05:01:26.206Z,0.60
2022-09-14T05:03:53.328Z,0.98
2022-09-14T05:06:25.648Z,0.88
2022-09-14T05:08:53.017Z,0.55
2022-09-14T05:11:21.988Z,0.77
2022-09-14T05:13:50.259Z,0.60
2022-09-14T05:16:19.448Z,0.65
2022-09-14T05:18:46.606Z,0.90
2022-09-14T05:21:15.694Z,0.88
2022-09-14T05:23:42.678Z,0.73
2022-09-14T05:26:09.686Z,0.85
2022-09-14T05:28:36.870Z,0.43
2022-09-14T05:31:05.874Z,0.50
2022-09-14T05:33:33.823Z,0.50
2022-09-14T05:36:06.766Z,0.20
2022-09-14T05:38:35.087Z,0.28
2022-09-14T05:41:02.254Z,0.52
2022-09-14T05:43:29.540Z,0.82
2022-09-14T05:45:56.673Z,0.70
2022-09-14T05:48:24.232Z,0.20
2022-09-14T05:50:58.768Z,0.15
2022-09-14T05:53:25.811Z,0.20
2022-09-14T05:56:10.609Z,0.13
2022-09-14T05:58:38.350Z,0.20
2022-09-14T06:01:12.503Z,0.15
2022-09-14T06:03:39.696Z,0.35
2022-09-14T06:06:08.016Z,0.10
2022-09-14T06:08:35.812Z,0.57
2022-09-14T06:11:11.379Z,0.13
2022-09-14T06:13:38.628Z,0.13
2022-09-14T06:16:07.226Z,0.40
2022-09-14T06:18:34.895Z,0.10
2022-09-14T06:21:28.923Z,0.20
2022-09-14T06:23:56.127Z,0.10
2022-09-14T06:26:23.108Z,0.30
2022-09-14T06:28:50.155Z,0.13
2022-09-14T06:31:17.869Z,0.20
2022-09-14T06:33:45.728Z,0.30
2022-09-14T06:36:15.056Z,0.13
2022-09-14T06:38:44.522Z,0.17
2022-09-14T06:41:13.266Z,0.10
2022-09-14T06:43:41.023Z,0.10
2022-09-14T06:46:16.362Z,0.10
2022-09-14T06:48:52.739Z,0.20
2022-09-14T06:51:21.525Z,0.10
2022-09-14T06:53:48.646Z,0.10
2022-09-14T06:56:15.706Z,0.10
2022-09-14T06:58:42.759Z,0.43
2022-09-14T07:01:16.696Z,0.10
2022-09-14T07:03:44.019Z,0.40
2022-09-14T07:06:13.959Z,0.30
2022-09-14T07:08:41.055Z,0.10
2022-09-14T07:11:08.919Z,0.10
2022-09-14T07:13:36.051Z,0.15
2022-09-14T07:16:03.691Z,0.25
2022-09-14T07:18:34.235Z,0.60
2022-09-14T07:21:06.016Z,0.10
2022-09-14T07:23:33.721Z,0.10
2022-09-14T07:26:17.046Z,0.15
2022-09-14T07:28:46.654Z,0.20
2022-09-14T07:31:22.072Z,0.20
2022-09-14T07:33:52.277Z,0.40
2022-09-14T07:36:19.676Z,0.20
2022-09-14T07:38:52.596Z,0.20
2022-09-14T07:41:26.352Z,0.10
2022-09-14T07:44:00.028Z,0.10
2022-09-14T07:46:33.012Z,0.50
2022-09-14T07:49:01.269Z,0.40
2022-09-14T07:51:28.988Z,0.20
2022-09-14T07:53:56.170Z,0.30
2022-09-14T07:56:23.368Z,0.30
2022-09-14T07:58:55.440Z,0.30
2022-09-14T08:01:25.955Z,0.38
2022-09-14T08:03:52.862Z,0.25
2022-09-14T08:06:21.483Z,0.10
2022-09-14T08:08:49.620Z,0.63
2022-09-14T08:11:17.827Z,0.30
2022-09-14T08:13:49.131Z,0.20
2022-09-14T08:16:16.168Z,0.10
2022-09-14T08:18:43.194Z,0.10
2022-09-14T08:21:12.494Z,0.40
2022-09-14T08:23:39.788Z,0.47
2022-09-14T08:26:16.723Z,0.35
2022-09-14T08:28:44.089Z,0.30
2022-09-14T08:31:18.580Z,0.20
2022-09-14T08:33:47.592Z,0.10
2022-09-14T08:36:16.515Z,0.25
2022-09-14T08:38:43.611Z,0.10
2022-09-14T08:41:19.817Z,0.20
2022-09-14T08:43:46.789Z,0.10
2022-09-14T08:46:30.734Z,0.10
2022-09-14T08:48:57.767Z,0.10
2022-09-14T08:51:24.756Z,0.22
2022-09-14T08:53:52.930Z,0.10
2022-09-14T08:56:23.491Z,0.40
2022-09-14T08:59:21.175Z,0.10
2022-09-14T09:02:12.529Z,0.20
2022-09-14T09:05:03.112Z,0.13
2022-09-14T09:07:38.515Z,0.35
2022-09-14T09:10:05.901Z,0.10
2022-09-14T09:12:37.927Z,0.10
2022-09-14T09:15:27.151Z,0.05
2022-09-14T09:18:08.220Z,0.08
2022-09-14T09:20:42.769Z,0.40
2022-09-14T09:23:16.778Z,0.20
2022-09-14T09:26:21.698Z,0.45
2022-09-14T09:28:49.972Z,0.10
2022-09-14T09:31:18.240Z,0.10
2022-09-14T09:34:04.041Z,0.10
2022-09-14T09:36:41.147Z,0.10
2022-09-14T09:39:08.289Z,0.20
2022-09-14T09:41:48.946Z,0.00
2022-09-14T09:44:16.047Z,0.08
2022-09-14T09:46:56.966Z,0.10
2022-09-14T09:49:26.662Z,0.22
2022-09-14T09:51:54.106Z,0.10
2022-09-14T09:54:29.143Z,0.08
2022-09-14T09:57:32.286Z,0.30
2022-09-14T10:00:22.599Z,0.10
2022-09-14T10:02:50.109Z,0.17
2022-09-14T10:05:19.779Z,0.00
2022-09-14T10:07:52.327Z,0.10
2022-09-14T10:10:23.962Z,0.10
2022-09-14T10:12:52.442Z,0.10
2022-09-14T10:15:31.842Z,0.00
2022-09-14T10:18:10.748Z,0.22
2022-09-14T10:20:58.288Z,0.13
2022-09-14T10:23:26.870Z,0.00
2022-09-14T10:26:12.813Z,0.00
2022-09-14T10:28:40.632Z,0.00
2022-09-14T10:31:19.757Z,0.65
2022-09-14T10:33:52.198Z,0.00
2022-09-14T10:36:33.135Z,0.08
2022-09-14T10:39:12.902Z,0.10
2022-09-14T10:41:57.805Z,0.10
2022-09-14T10:44:50.565Z,0.00
2022-09-14T10:47:26.984Z,0.00
2022-09-14T10:50:34.000Z,0.10
2022-09-14T10:53:19.926Z,0.00
2022-09-14T10:56:07.423Z,0.20
2022-09-14T10:58:40.544Z,0.20
2022-09-14T11:01:13.564Z,0.20
2022-09-14T11:04:17.921Z,0.13
2022-09-14T11:07:24.989Z,0.20
2022-09-14T11:10:19.701Z,0.10
2022-09-14T11:12:53.473Z,0.10
2022-09-14T11:15:35.255Z,0.10
2022-09-14T11:18:15.856Z,0.40
2022-09-14T11:21:01.337Z,0.10
2022-09-14T11:23:43.285Z,0.15
2022-09-14T11:26:39.192Z,0.10
2022-09-14T11:29:32.570Z,0.10
2022-09-14T11:32:22.356Z,0.00
2022-09-14T11:34:56.006Z,0.10
2022-09-14T11:37:31.286Z,0.05
2022-09-14T11:40:17.282Z,0.00
2022-09-14T11:43:11.266Z,0.20
2022-09-14T11:45:42.666Z,0.13
2022-09-14T11:51:13.301Z,0.20
2022-09-14T11:53:41.756Z,0.10
2022-09-14T11:56:26.351Z,0.10
2022-09-14T11:59:01.974Z,0.20
2022-09-14T12:01:36.491Z,0.17
2022-09-14T12:04:16.969Z,0.00
2022-09-14T12:06:47.838Z,0.00
2022-09-14T12:09:20.137Z,0.00
2022-09-14T12:11:54.104Z,0.00
2022-09-14T12:14:35.801Z,0.15
2022-09-14T12:17:38.765Z,0.00
2022-09-14T12:20:29.504Z,0.00
2022-09-14T12:23:21.037Z,0.00
2022-09-14T12:25:58.694Z,0.00
2022-09-14T12:28:37.862Z,0.00
2022-09-14T12:31:05.086Z,0.10
2022-09-14T12:33:34.957Z,0.00
2022-09-14T12:36:05.567Z,0.00
2022-09-14T12:38:41.172Z,0.00
2022-09-14T12:43:35.091Z,0.22
2022-09-14T12:46:03.541Z,0.10
2022-09-14T12:48:46.513Z,0.17
2022-09-14T12:51:28.887Z,0.00
2022-09-14T12:53:59.234Z,0.10
2022-09-14T12:56:47.968Z,0.10
2022-09-14T12:59:40.460Z,0.00
2022-09-14T13:02:29.278Z,0.00
2022-09-14T13:04:57.665Z,0.10
2022-09-14T13:07:36.117Z,0.00
2022-09-14T13:10:04.536Z,0.17
2022-09-14T13:12:41.928Z,0.10
2022-09-14T13:15:36.865Z,0.00
2022-09-14T13:18:05.334Z,0.00
2022-09-14T13:20:34.171Z,0.00
2022-09-14T13:23:01.657Z,0.00
2022-09-14T13:25:34.497Z,0.20
2022-09-14T13:28:06.023Z,0.00
2022-09-14T13:30:33.955Z,0.00
2022-09-14T13:33:01.036Z,0.00
2022-09-14T13:35:35.686Z,0.00
2022-09-14T13:38:19.031Z,0.00
2022-09-14T13:40:46.610Z,0.28
2022-09-14T13:43:13.493Z,0.00
2022-09-14T13:45:40.514Z,0.10
2022-09-14T13:48:07.481Z,0.00
2022-09-14T13:50:35.054Z,0.03
2022-09-14T13:53:03.769Z,0.00
2022-09-14T13:55:34.100Z,0.20
2022-09-14T13:58:07.513Z,0.00
2022-09-14T14:00:55.324Z,0.55
2022-09-14T14:03:34.086Z,0.10
2022-09-14T14:06:05.027Z,0.00
2022-09-14T14:08:36.831Z,0.00
2022-09-14T14:11:07.549Z,0.00
2022-09-14T14:13:36.021Z,0.00
2022-09-14T14:16:23.942Z,0.00
2022-09-14T14:18:56.712Z,0.00
2022-09-14T14:21:29.943Z,0.00
2022-09-14T14:24:26.834Z,0.10
2022-09-14T14:26:56.263Z,0.00
2022-09-14T14:29:23.567Z,0.08
2022-09-14T14:31:50.693Z,0.00
2022-09-14T14:34:19.813Z,0.10
2022-09-14T14:36:49.833Z,0.10
2022-09-14T14:39:20.830Z,0.00
2022-09-14T14:41:47.917Z,0.10
2022-09-14T14:44:26.140Z,0.00
2022-09-14T14:46:53.026Z,0.00
2022-09-14T14:49:20.619Z,0.00
2022-09-14T14:51:48.111Z,0.00
2022-09-14T14:54:18.618Z,0.10
2022-09-14T14:56:50.259Z,0.00
2022-09-14T14:59:20.124Z,0.08
2022-09-14T15:01:47.648Z,0.00
2022-09-14T15:04:14.796Z,0.15
2022-09-14T15:06:42.051Z,0.08
2022-09-14T15:09:26.077Z,0.00
2022-09-14T15:11:56.295Z,0.10
2022-09-14T15:14:26.986Z,0.00
2022-09-14T15:16:57.872Z,0.00
2022-09-14T15:19:25.901Z,0.00
2022-09-14T15:21:56.199Z,0.00
2022-09-14T15:24:25.656Z,0.00
2022-09-14T15:26:54.182Z,0.00
2022-09-14T15:29:21.173Z,0.03
2022-09-14T15:31:48.337Z,0.10
2022-09-14T15:34:15.269Z,1.00
2022-09-14T15:36:50.932Z,0.00
2022-09-14T15:39:20.443Z,0.00
2022-09-14T15:41:47.422Z,0.00
2022-09-14T15:44:15.517Z,0.08
2022-09-14T15:46:44.436Z,0.10
2022-09-14T15:49:12.714Z,0.00
2022-09-14T15:51:42.367Z,0.00
2022-09-14T15:54:09.254Z,0.00
2022-09-14T15:56:36.800Z,0.40
2022-09-14T15:59:03.912Z,0.00
2022-09-14T16:01:31.115Z,0.05
2022-09-14T16:04:03.123Z,0.10
2022-09-14T16:06:30.267Z,0.15
2022-09-14T16:08:57.785Z,0.00
2022-09-14T16:11:24.733Z,0.10
2022-09-14T16:13:51.764Z,0.00
2022-09-14T16:16:19.882Z,0.00
2022-09-14T16:18:47.555Z,0.00
2022-09-14T16:21:16.722Z,0.00
2022-09-14T16:23:45.634Z,0.00
2022-09-14T16:26:18.274Z,0.10
2022-09-14T16:28:46.607Z,0.10
2022-09-14T16:31:18.538Z,0.00
2022-09-14T16:33:47.624Z,0.00
2022-09-14T16:36:22.498Z,0.00
2022-09-14T16:38:49.479Z,0.00
2022-09-14T16:41:16.593Z,0.00
2022-09-14T16:43:43.940Z,0.00
2022-09-14T16:46:15.203Z,0.00
2022-09-14T16:48:43.857Z,0.00
2022-09-14T16:51:11.815Z,0.10
2022-09-14T16:53:40.211Z,0.00
2022-09-14T16:56:16.003Z,0.00
2022-09-14T16:58:43.356Z,0.00
2022-09-14T17:01:17.786Z,0.00
2022-09-14T17:03:45.800Z,0.00
2022-09-14T17:06:14.793Z,0.00
2022-09-14T17:08:43.985Z,0.00
2022-09-14T17:11:11.763Z,0.00
2022-09-14T17:13:38.973Z,0.00
2022-09-14T17:16:08.026Z,0.50
2022-09-14T17:18:36.106Z,0.00
2022-09-14T17:21:08.147Z,0.00
2022-09-14T17:23:35.211Z,0.00
2022-09-14T17:26:05.414Z,0.00
2022-09-14T17:28:32.832Z,0.00
2022-09-14T17:31:00.909Z,0.10
2022-09-14T17:33:28.524Z,0.00
2022-09-14T17:35:57.623Z,0.08
2022-09-14T17:38:29.744Z,0.00
2022-09-14T17:41:14.673Z,0.00
2022-09-14T17:43:42.103Z,0.00
2022-09-14T17:46:13.361Z,0.00
2022-09-14T17:48:41.356Z,0.10
2022-09-14T17:51:14.248Z,0.00
2022-09-14T17:53:42.621Z,0.05
2022-09-14T17:56:10.750Z,0.10
2022-09-14T17:58:37.828Z,0.00
2022-09-14T18:01:14.119Z,0.10
2022-09-14T18:03:42.698Z,0.10
2022-09-14T18:06:11.934Z,0.10
2022-09-14T18:08:39.414Z,0.10
2022-09-14T18:11:11.897Z,0.00
2022-09-14T18:13:42.822Z,0.10
2022-09-14T18:16:10.162Z,0.10
2022-09-14T18:18:37.326Z,0.10
2022-09-14T18:21:04.659Z,0.10
2022-09-14T18:23:31.779Z,0.10
2022-09-14T18:25:58.950Z,0.10
2022-09-14T18:28:25.994Z,0.10
2022-09-14T18:31:00.359Z,0.10
2022-09-14T18:33:28.016Z,0.60
2022-09-14T18:35:54.973Z,0.10
2022-09-14T18:38:22.097Z,0.10
2022-09-14T18:40:49.024Z,0.10
2022-09-14T18:43:19.029Z,0.10
2022-09-14T18:45:46.499Z,0.20
2022-09-14T18:48:13.511Z,0.00
2022-09-14T18:50:41.055Z,0.25
2022-09-14T18:53:08.253Z,0.10
2022-09-14T18:55:35.479Z,0.10
2022-09-14T18:58:02.814Z,0.10
2022-09-14T19:00:30.572Z,0.20
2022-09-14T19:02:57.614Z,0.10
2022-09-14T19:05:25.711Z,0.10
2022-09-14T19:07:53.179Z,0.22
2022-09-14T19:10:20.199Z,0.30
2022-09-14T19:12:47.699Z,0.20
2022-09-14T19:15:14.774Z,0.20
2022-09-14T19:17:41.893Z,0.30
2022-09-14T19:20:11.029Z,0.10
2022-09-14T19:22:38.103Z,0.38
2022-09-14T19:25:05.728Z,0.20
2022-09-14T19:27:32.789Z,0.10
2022-09-14T19:30:01.172Z,0.10
2022-09-14T19:32:28.094Z,0.30
2022-09-14T19:34:55.084Z,0.15
2022-09-14T19:37:22.436Z,0.38
2022-09-14T19:39:49.712Z,0.22
2022-09-14T19:42:16.937Z,0.20
2022-09-14T19:44:43.881Z,0.25
2022-09-14T19:47:10.752Z,0.13
2022-09-14T19:49:39.179Z,0.20
2022-09-14T19:52:06.095Z,0.20
2022-09-14T19:54:33.190Z,0.20
2022-09-14T19:57:00.213Z,0.10
2022-09-14T19:59:27.386Z,0.13
2022-09-14T20:01:54.541Z,0.30
2022-09-14T20:04:23.676Z,0.20
2022-09-14T20:06:51.640Z,0.60
2022-09-14T20:09:20.503Z,0.20
2022-09-14T20:11:48.347Z,0.20
2022-09-14T20:14:17.624Z,0.30
2022-09-14T20:16:47.046Z,0.22
2022-09-14T20:19:18.495Z,0.20
2022-09-14T20:21:47.493Z,0.22
2022-09-14T20:24:18.629Z,0.10
2022-09-14T20:26:47.265Z,0.30
2022-09-14T20:29:15.146Z,0.20
2022-09-14T20:31:42.384Z,0.47
2022-09-14T20:34:09.506Z,0.10
2022-09-14T20:36:36.483Z,0.20
2022-09-14T20:39:03.479Z,0.35
2022-09-14T20:41:31.905Z,0.22
2022-09-14T20:43:59.023Z,0.50
2022-09-14T20:46:36.508Z,0.30
2022-09-14T20:49:04.521Z,0.60
2022-09-14T20:51:31.590Z,0.57
2022-09-14T20:55:18.110Z,0.77
2022-09-14T20:57:45.136Z,0.65
2022-09-14T21:00:12.796Z,0.60
2022-09-14T21:02:39.799Z,1.20
2022-09-14T21:05:07.779Z,1.00
2022-09-14T21:07:34.739Z,1.20
2022-09-14T21:10:02.062Z,1.10
2022-09-14T21:12:28.998Z,1.70
2022-09-14T21:14:55.918Z,0.93
2022-09-14T21:17:23.073Z,1.80
2022-09-14T21:19:49.992Z,2.25
2022-09-14T21:22:17.235Z,1.55
2022-09-14T21:24:44.121Z,0.95
2022-09-14T21:27:14.595Z,2.20
2022-09-14T21:29:41.581Z,1.50
2022-09-14T21:32:09.231Z,1.75
2022-09-14T21:34:36.283Z,1.60
2022-09-14T21:37:03.650Z,1.17
2022-09-14T21:39:30.665Z,1.40
2022-09-14T21:41:59.630Z,1.40
2022-09-14T21:44:30.893Z,1.55
2022-09-14T21:46:58.063Z,1.40
2022-09-14T21:49:25.018Z,0.90
2022-09-14T21:51:51.948Z,1.20
2022-09-14T21:54:18.968Z,1.00
2022-09-14T21:56:46.367Z,0.90
2022-09-14T21:59:19.151Z,1.05
2022-09-14T22:01:46.840Z,1.25
2022-09-14T22:04:15.523Z,1.45
2022-09-14T22:06:42.605Z,0.90
2022-09-14T22:09:09.582Z,1.15
2022-09-14T22:11:37.202Z,0.93
2022-09-14T22:14:14.721Z,1.02
2022-09-14T22:16:41.923Z,1.17
2022-09-14T22:19:23.118Z,0.57
2022-09-14T22:21:51.177Z,0.85
2022-09-14T22:24:20.620Z,1.73
2022-09-14T22:26:47.818Z,1.00
2022-09-14T22:29:16.626Z,0.90
2022-09-14T22:31:44.062Z,0.93
2022-09-14T22:34:11.381Z,0.73
2022-09-14T22:36:38.638Z,1.17
2022-09-14T22:39:05.918Z,1.10
2022-09-14T22:41:33.265Z,1.08
2022-09-14T22:44:00.277Z,1.08
2022-09-14T22:46:27.245Z,0.90
2022-09-14T22:48:54.304Z,0.77
2022-09-14T22:51:25.441Z,0.98
2022-09-14T22:53:52.801Z,0.90
2022-09-14T22:56:23.803Z,0.93
2022-09-14T22:58:50.767Z,1.17
2022-09-14T23:01:22.680Z,1.17
2022-09-14T23:03:49.972Z,0.55
2022-09-14T23:06:16.967Z,0.52
2022-09-14T23:08:44.000Z,1.10
2022-09-14T23:11:11.912Z,0.80
2022-09-14T23:13:42.208Z,1.20
2022-09-14T23:16:10.900Z,0.93
2022-09-14T23:18:37.969Z,0.50
2022-09-14T23:21:05.171Z,0.88
2022-09-14T23:23:32.327Z,0.90
2022-09-14T23:26:07.408Z,1.30
2022-09-14T23:28:34.528Z,1.42
2022-09-14T23:31:01.511Z,1.23
2022-09-14T23:33:29.112Z,1.15
2022-09-14T23:35:56.168Z,0.75
2022-09-14T23:38:23.604Z,1.00
2022-09-14T23:40:50.580Z,1.13
2022-09-14T23:43:18.134Z,1.23
2022-09-14T23:45:45.683Z,0.90
2022-09-14T23:48:13.469Z,1.08
2022-09-14T23:50:40.661Z,1.00
2022-09-14T23:53:07.684Z,0.73
2022-09-14T23:55:34.604Z,1.10
2022-09-14T23:58:01.541Z,1.25
